createdAt,value
2017-08-14T00:02:11.482Z,101630.43
2017-08-14T00:04:39.382Z,101632.19
2017-08-14T00:07:07.688Z,101632.63
2017-08-14T00:09:35.594Z,101637.45
2017-08-14T00:12:03.496Z,101636.13
2017-08-14T00:14:31.803Z,101632.17
2017-08-14T00:16:59.699Z,101635.70
2017-08-14T00:19:27.781Z,101630.41
2017-08-14T00:21:55.688Z,101633.94
2017-08-14T00:24:23.992Z,101637.00
2017-08-14T00:26:51.904Z,101638.33
2017-08-14T00:29:19.812Z,101634.83
2017-08-14T00:31:47.719Z,101644.50
2017-08-14T00:34:15.624Z,101640.11
2017-08-14T00:36:43.984Z,101640.53
2017-08-14T00:39:11.879Z,101639.20
2017-08-14T00:41:40.504Z,101639.21
2017-08-14T00:44:08.406Z,101631.73
2017-08-14T00:46:36.307Z,101635.24
2017-08-14T00:49:04.303Z,101636.13
2017-08-14T00:51:32.460Z,101636.56
2017-08-14T00:54:00.380Z,101634.36
2017-08-14T00:56:28.292Z,101633.03
2017-08-14T00:58:56.470Z,101629.54
2017-08-14T01:01:24.366Z,101636.57
2017-08-14T01:03:52.287Z,101633.47
2017-08-14T01:06:20.484Z,101636.58
2017-08-14T01:08:48.701Z,101635.23
2017-08-14T01:11:16.608Z,101631.73
2017-08-14T01:13:44.923Z,101637.86
2017-08-14T01:16:12.831Z,101642.70
2017-08-14T01:18:40.762Z,101641.83
2017-08-14T01:21:08.671Z,101645.77
2017-08-14T01:23:36.599Z,101647.91
2017-08-14T01:26:05.338Z,101643.51
2017-08-14T01:28:33.230Z,101642.16
2017-08-14T01:31:01.532Z,101645.67
2017-08-14T01:33:29.557Z,101653.56
2017-08-14T01:35:57.468Z,101651.83
2017-08-14T01:38:25.374Z,101654.44
2017-08-14T01:40:53.497Z,101655.28
2017-08-14T01:43:21.406Z,101656.59
2017-08-14T01:45:49.457Z,101660.56
2017-08-14T01:48:17.572Z,101661.88
2017-08-14T01:50:45.479Z,101655.27
2017-08-14T01:53:13.393Z,101655.25
2017-08-14T01:55:41.336Z,101662.30
2017-08-14T01:58:09.235Z,101665.41
2017-08-14T02:00:37.465Z,101665.38
2017-08-14T02:03:05.377Z,101655.73
2017-08-14T02:05:33.295Z,101660.59
2017-08-14T02:08:01.605Z,101657.08
2017-08-14T02:10:29.702Z,101657.96
2017-08-14T02:12:57.639Z,101665.84
2017-08-14T02:15:25.542Z,101662.78
2017-08-14T02:17:53.456Z,101664.11
2017-08-14T02:20:21.752Z,101655.38
2017-08-14T02:22:49.668Z,101653.63
2017-08-14T02:25:17.566Z,101666.86
2017-08-14T02:27:45.886Z,101666.83
2017-08-14T02:30:13.800Z,101659.41
2017-08-14T02:32:41.857Z,101660.70
2017-08-14T02:35:10.166Z,101660.30
2017-08-14T02:37:38.466Z,101662.50
2017-08-14T02:40:06.371Z,101660.31
2017-08-14T02:42:34.281Z,101662.09
2017-08-14T02:45:02.588Z,101663.84
2017-08-14T02:47:30.523Z,101666.94
2017-08-14T02:49:59.122Z,101661.64
2017-08-14T02:52:27.015Z,101665.61
2017-08-14T02:54:54.919Z,101668.25
2017-08-14T02:57:22.822Z,101666.48
2017-08-14T02:59:51.168Z,101666.50
2017-08-14T03:02:19.066Z,101666.48
2017-08-14T03:04:47.242Z,101666.48
2017-08-14T03:07:15.146Z,101663.42
2017-08-14T03:09:43.052Z,101670.45
2017-08-14T03:12:11.012Z,101677.48
2017-08-14T03:14:38.914Z,101682.77
2017-08-14T03:17:07.249Z,101682.75
2017-08-14T03:19:35.147Z,101678.36
2017-08-14T03:22:03.702Z,101678.81
2017-08-14T03:24:31.599Z,101678.83
2017-08-14T03:26:59.904Z,101681.00
2017-08-14T03:29:27.832Z,101688.49
2017-08-14T03:31:55.790Z,101684.52
2017-08-14T03:34:23.708Z,101680.98
2017-08-14T03:36:51.620Z,101681.84
2017-08-14T03:39:19.535Z,101681.81
2017-08-14T03:41:47.856Z,101683.12
2017-08-14T03:44:15.773Z,101677.84
2017-08-14T03:46:44.072Z,101684.45
2017-08-14T03:49:11.996Z,101683.52
2017-08-14T03:51:39.908Z,101688.80
2017-08-14T03:54:07.993Z,101690.08
2017-08-14T03:56:35.902Z,101681.30
2017-08-14T03:59:03.794Z,101682.17
2017-08-14T04:01:32.124Z,101694.47
2017-08-14T04:04:00.028Z,101690.05
2017-08-14T04:06:27.978Z,101689.16
2017-08-14T04:08:55.892Z,101687.87
2017-08-14T04:11:24.187Z,101689.64
2017-08-14T04:13:52.102Z,101691.00
2017-08-14T04:16:20.002Z,101691.45
2017-08-14T04:18:48.311Z,101698.05
2017-08-14T04:21:16.210Z,101691.48
2017-08-14T04:23:44.115Z,101696.32
2017-08-14T04:26:12.567Z,101698.47
2017-08-14T04:28:40.461Z,101699.83
2017-08-14T04:31:08.756Z,101699.84
2017-08-14T04:33:36.662Z,101699.88
2017-08-14T04:36:04.577Z,101698.17
2017-08-14T04:38:32.883Z,101698.16
2017-08-14T04:41:00.788Z,101701.70
2017-08-14T04:43:28.694Z,101710.05
2017-08-14T04:45:57.001Z,101706.09
2017-08-14T04:48:24.919Z,101706.54
2017-08-14T04:50:52.823Z,101712.69
2017-08-14T04:53:20.733Z,101710.77
2017-08-14T04:55:48.630Z,101712.06
2017-08-14T04:58:16.689Z,101716.55
2017-08-14T05:00:44.585Z,101706.31
2017-08-14T05:03:12.882Z,101711.33
2017-08-14T05:05:40.807Z,101708.14
2017-08-14T05:08:09.136Z,101706.42
2017-08-14T05:10:37.056Z,101711.73
2017-08-14T05:13:04.946Z,101708.27
2017-08-14T05:15:33.518Z,101716.25
2017-08-14T05:18:01.414Z,101716.84
2017-08-14T05:20:29.316Z,101720.38
2017-08-14T05:22:57.218Z,101719.73
2017-08-14T05:25:25.137Z,101712.53
2017-08-14T05:27:53.068Z,101715.32
2017-08-14T05:30:20.959Z,101718.59
2017-08-14T05:32:48.898Z,101719.63
2017-08-14T05:35:16.800Z,101715.72
2017-08-14T05:37:44.719Z,101717.33
2017-08-14T05:40:12.623Z,101723.30
2017-08-14T05:42:41.062Z,101717.87
2017-08-14T05:45:08.967Z,101720.19
2017-08-14T05:47:36.863Z,101719.44
2017-08-14T05:50:04.774Z,101711.63
2017-08-14T05:52:32.666Z,101717.19
2017-08-14T05:55:01.020Z,101711.30
2017-08-14T05:57:28.931Z,101715.92
2017-08-14T05:59:57.303Z,101718.86
2017-08-14T06:02:25.656Z,101716.61
2017-08-14T06:04:54.018Z,101726.89
2017-08-14T06:07:22.358Z,101719.01
2017-08-14T06:09:50.767Z,101723.42
2017-08-14T06:12:19.399Z,101724.59
2017-08-14T06:14:47.751Z,101727.27
2017-08-14T06:17:16.104Z,101730.90
2017-08-14T06:19:44.461Z,101729.50
2017-08-14T06:22:12.803Z,101729.56
2017-08-14T06:24:41.168Z,101730.19
2017-08-14T06:27:09.515Z,101725.77
2017-08-14T06:29:37.863Z,101724.06
2017-08-14T06:32:06.680Z,101725.05
2017-08-14T06:34:35.033Z,101731.75
2017-08-14T06:37:03.770Z,101735.08
2017-08-14T06:39:32.128Z,101729.29
2017-08-14T06:42:00.470Z,101742.08
2017-08-14T06:44:29.414Z,101743.58
2017-08-14T06:46:57.771Z,101742.99
2017-08-14T06:49:26.111Z,101745.42
2017-08-14T06:51:54.463Z,101750.95
2017-08-14T06:54:22.817Z,101742.06
2017-08-14T06:56:51.181Z,101748.45
2017-08-14T06:59:19.528Z,101747.78
2017-08-14T07:01:47.888Z,101752.23
2017-08-14T07:04:16.237Z,101752.40
2017-08-14T07:06:44.587Z,101750.11
2017-08-14T07:09:12.952Z,101748.87
2017-08-14T07:11:41.701Z,101749.69
2017-08-14T07:14:10.048Z,101749.53
2017-08-14T07:16:38.394Z,101752.09
2017-08-14T07:19:07.338Z,101752.95
2017-08-14T07:21:35.689Z,101758.59
2017-08-14T07:24:04.086Z,101751.08
2017-08-14T07:26:32.451Z,101749.64
2017-08-14T07:29:00.801Z,101756.59
2017-08-14T07:31:29.160Z,101752.77
2017-08-14T07:33:57.507Z,101753.52
2017-08-14T07:36:25.859Z,101753.20
2017-08-14T07:38:54.207Z,101759.58
2017-08-14T07:41:22.572Z,101751.31
2017-08-14T07:43:50.907Z,101748.21
2017-08-14T07:46:19.256Z,101759.31
2017-08-14T07:48:47.995Z,101754.84
2017-08-14T07:51:16.331Z,101752.52
2017-08-14T07:53:45.187Z,101762.11
2017-08-14T07:56:13.531Z,101766.06
2017-08-14T07:58:41.895Z,101764.83
2017-08-14T08:01:10.240Z,101764.30
2017-08-14T08:03:38.607Z,101764.47
2017-08-14T08:06:06.959Z,101762.77
2017-08-14T08:08:35.315Z,101760.53
2017-08-14T08:11:03.655Z,101763.47
2017-08-14T08:13:32.012Z,101764.41
2017-08-14T08:16:00.468Z,101767.25
2017-08-14T08:18:28.823Z,101759.67
2017-08-14T08:20:57.567Z,101761.02
2017-08-14T08:23:25.913Z,101757.08
2017-08-14T08:25:54.263Z,101764.03
2017-08-14T08:28:23.009Z,101754.25
2017-08-14T08:30:51.659Z,101761.50
2017-08-14T08:33:20.311Z,101762.44
2017-08-14T08:35:49.044Z,101762.11
2017-08-14T08:38:17.395Z,101765.41
2017-08-14T08:40:46.141Z,101755.77
2017-08-14T08:43:14.906Z,101762.89
2017-08-14T08:45:43.265Z,101760.34
2017-08-14T08:48:11.623Z,101749.00
2017-08-14T08:50:40.363Z,101752.05
2017-08-14T08:53:09.038Z,101749.23
2017-08-14T08:55:37.379Z,101759.39
2017-08-14T08:58:06.129Z,101768.58
2017-08-14T09:00:34.483Z,101759.81
2017-08-14T09:03:02.833Z,101755.48
2017-08-14T09:05:31.500Z,101747.64
2017-08-14T09:08:00.249Z,101747.23
2017-08-14T09:10:28.603Z,101748.61
2017-08-14T09:12:57.250Z,101755.34
2017-08-14T09:15:25.603Z,101751.20
2017-08-14T09:17:53.957Z,101752.30
2017-08-14T09:20:22.420Z,101740.97
2017-08-14T09:22:50.764Z,101744.08
2017-08-14T09:25:19.769Z,101749.50
2017-08-14T09:27:48.515Z,101745.43
2017-08-14T09:30:16.855Z,101745.05
2017-08-14T09:32:45.212Z,101746.91
2017-08-14T09:35:13.950Z,101752.03
2017-08-14T09:37:42.312Z,101752.33
2017-08-14T09:40:10.652Z,101747.43
2017-08-14T09:42:39.017Z,101740.86
2017-08-14T09:45:07.359Z,101744.48
2017-08-14T09:47:35.703Z,101734.15
2017-08-14T09:50:04.441Z,101735.05
2017-08-14T09:52:33.119Z,101735.22
2017-08-14T09:55:01.463Z,101739.11
2017-08-14T09:57:30.130Z,101733.19
2017-08-14T09:59:58.888Z,101733.61
2017-08-14T10:02:27.237Z,101730.20
2017-08-14T10:04:55.609Z,101731.81
2017-08-14T10:07:23.969Z,101735.80
2017-08-14T10:09:52.732Z,101730.32
2017-08-14T10:12:21.083Z,101729.20
2017-08-14T10:14:51.044Z,101733.14
2017-08-14T10:17:19.780Z,101721.47
2017-08-14T10:19:48.373Z,101730.09
2017-08-14T10:22:16.715Z,101726.22
2017-08-14T10:24:45.068Z,101728.46
2017-08-14T10:27:13.410Z,101723.58
2017-08-14T10:29:41.756Z,101719.14
2017-08-14T10:32:10.098Z,101715.17
2017-08-14T10:34:38.458Z,101714.06
2017-08-14T10:37:07.128Z,101719.88
2017-08-14T10:39:35.478Z,101712.85
2017-08-14T10:42:03.841Z,101714.27
2017-08-14T10:44:32.215Z,101710.78
2017-08-14T10:47:00.964Z,101707.31
2017-08-14T10:49:29.327Z,101703.33
2017-08-14T10:51:57.684Z,101701.59
2017-08-14T10:54:26.035Z,101703.83
2017-08-14T10:56:54.770Z,101707.11
2017-08-14T10:59:23.265Z,101708.50
2017-08-14T11:01:51.612Z,101696.20
2017-08-14T11:04:19.972Z,101698.53
2017-08-14T11:06:48.314Z,101697.72
2017-08-14T11:09:16.664Z,101703.97
2017-08-14T11:11:45.029Z,101705.99
2017-08-14T11:14:13.371Z,101701.97
2017-08-14T11:16:41.719Z,101699.39
2017-08-14T11:19:10.072Z,101695.06
2017-08-14T11:21:38.424Z,101693.98
2017-08-14T11:24:07.161Z,101692.68
2017-08-14T11:26:35.734Z,101687.94
2017-08-14T11:29:04.074Z,101684.41
2017-08-14T11:31:32.424Z,101694.12
2017-08-14T11:34:00.780Z,101696.90
2017-08-14T11:36:29.133Z,101691.91
2017-08-14T11:38:57.483Z,101685.55
2017-08-14T11:41:26.222Z,101679.33
2017-08-14T11:43:54.575Z,101676.38
2017-08-14T11:46:22.925Z,101691.36
2017-08-14T11:48:51.266Z,101678.61
2017-08-14T11:51:19.893Z,101681.13
2017-08-14T11:53:48.833Z,101682.73
2017-08-14T11:56:17.175Z,101675.16
2017-08-14T11:58:45.921Z,101665.52
2017-08-14T12:01:14.281Z,101670.08
2017-08-14T12:03:42.632Z,101665.45
2017-08-14T12:06:10.978Z,101672.86
2017-08-14T12:08:39.333Z,101683.73
2017-08-14T12:11:07.682Z,101675.84
2017-08-14T12:13:36.022Z,101678.74
2017-08-14T12:16:04.767Z,101674.88
2017-08-14T12:18:33.123Z,101668.21
2017-08-14T12:21:01.611Z,101665.84
2017-08-14T12:23:29.954Z,101664.72
2017-08-14T12:25:58.700Z,101666.66
2017-08-14T12:28:27.079Z,101668.77
2017-08-14T12:30:55.424Z,101669.31
2017-08-14T12:33:23.846Z,101661.48
2017-08-14T12:35:52.197Z,101659.61
2017-08-14T12:38:20.557Z,101661.84
2017-08-14T12:40:48.980Z,101655.31
2017-08-14T12:43:17.332Z,101658.95
2017-08-14T12:45:45.676Z,101651.06
2017-08-14T12:48:14.615Z,101650.28
2017-08-14T12:50:43.639Z,101645.98
2017-08-14T12:53:11.986Z,101638.04
2017-08-14T12:55:40.340Z,101639.03
2017-08-14T12:58:08.697Z,101640.05
2017-08-14T13:00:37.051Z,101644.31
2017-08-14T13:03:05.623Z,101637.36
2017-08-14T13:05:33.981Z,101643.89
2017-08-14T13:08:02.322Z,101632.22
2017-08-14T13:10:31.080Z,101622.11
2017-08-14T13:12:59.418Z,101627.66
2017-08-14T13:15:27.980Z,101623.61
2017-08-14T13:17:56.963Z,101616.55
2017-08-14T13:20:25.687Z,101619.55
2017-08-14T13:22:54.056Z,101620.67
2017-08-14T13:25:22.474Z,101618.42
2017-08-14T13:27:50.819Z,101625.41
2017-08-14T13:30:19.159Z,101618.77
2017-08-14T13:32:47.527Z,101620.20
2017-08-14T13:35:15.876Z,101615.16
2017-08-14T13:37:44.229Z,101617.05
2017-08-14T13:40:12.580Z,101609.99
2017-08-14T13:42:40.941Z,101611.41
2017-08-14T13:45:09.549Z,101607.19
2017-08-14T13:47:38.490Z,101607.08
2017-08-14T13:50:06.849Z,101607.30
2017-08-14T13:52:35.202Z,101606.20
2017-08-14T13:55:03.960Z,101601.05
2017-08-14T13:57:32.303Z,101604.33
2017-08-14T14:00:00.653Z,101610.55
2017-08-14T14:02:29.389Z,101601.30
2017-08-14T14:04:57.749Z,101611.06
2017-08-14T14:07:26.100Z,101602.17
2017-08-14T14:09:54.844Z,101601.21
2017-08-14T14:12:23.182Z,101602.14
2017-08-14T14:14:51.635Z,101594.34
2017-08-14T14:17:20.378Z,101598.41
2017-08-14T14:19:48.729Z,101601.45
2017-08-14T14:22:17.089Z,101598.97
2017-08-14T14:24:45.829Z,101594.91
2017-08-14T14:27:14.169Z,101602.19
2017-08-14T14:29:42.524Z,101605.28
2017-08-14T14:32:10.885Z,101592.56
2017-08-14T14:34:39.224Z,101586.99
2017-08-14T14:37:07.578Z,101584.16
2017-08-14T14:39:36.316Z,101584.01
2017-08-14T14:42:04.991Z,101581.52
2017-08-14T14:44:33.340Z,101577.61
2017-08-14T14:47:01.670Z,101571.84
2017-08-14T14:49:30.032Z,101569.45
2017-08-14T14:51:58.376Z,101567.54
2017-08-14T14:54:26.723Z,101571.73
2017-08-14T14:56:55.072Z,101574.96
2017-08-14T14:59:23.423Z,101569.64
2017-08-14T15:01:51.888Z,101562.01
2017-08-14T15:04:20.628Z,101563.27
2017-08-14T15:06:49.070Z,101558.50
2017-08-14T15:09:17.583Z,101559.13
2017-08-14T15:11:45.936Z,101558.36
2017-08-14T15:14:14.278Z,101549.05
2017-08-14T15:16:42.632Z,101555.66
2017-08-14T15:19:10.966Z,101550.20
2017-08-14T15:21:39.323Z,101548.45
2017-08-14T15:24:08.057Z,101550.23
2017-08-14T15:26:36.429Z,101556.81
2017-08-14T15:29:04.776Z,101552.98
2017-08-14T15:31:33.721Z,101557.59
2017-08-14T15:34:02.059Z,101548.37
2017-08-14T15:36:30.395Z,101556.48
2017-08-14T15:38:58.757Z,101549.92
2017-08-14T15:41:27.126Z,101556.33
2017-08-14T15:43:55.500Z,101561.31
2017-08-14T15:46:23.849Z,101551.87
2017-08-14T15:48:52.600Z,101555.28
2017-08-14T15:51:20.952Z,101546.97
2017-08-14T15:53:49.321Z,101554.86
2017-08-14T15:56:17.668Z,101541.55
2017-08-14T15:58:46.598Z,101547.09
2017-08-14T16:01:14.952Z,101550.09
2017-08-14T16:03:43.295Z,101546.47
2017-08-14T16:06:11.657Z,101548.11
2017-08-14T16:08:39.999Z,101547.08
2017-08-14T16:11:08.356Z,101537.58
2017-08-14T16:13:37.101Z,101544.75
2017-08-14T16:16:05.451Z,101545.47
2017-08-14T16:18:33.798Z,101545.37
2017-08-14T16:21:02.539Z,101539.41
2017-08-14T16:23:30.890Z,101549.44
2017-08-14T16:25:59.408Z,101533.38
2017-08-14T16:28:27.750Z,101535.09
2017-08-14T16:30:56.104Z,101532.16
2017-08-14T16:33:24.860Z,101529.86
2017-08-14T16:35:53.218Z,101525.98
2017-08-14T16:38:21.579Z,101534.72
2017-08-14T16:40:49.928Z,101526.94
2017-08-14T16:43:18.274Z,101536.12
2017-08-14T16:45:46.610Z,101526.43
2017-08-14T16:48:14.952Z,101526.18
2017-08-14T16:50:43.299Z,101523.98
2017-08-14T16:53:11.656Z,101525.46
2017-08-14T16:55:40.162Z,101521.21
2017-08-14T16:58:08.537Z,101515.91
2017-08-14T17:00:36.888Z,101518.42
2017-08-14T17:03:05.231Z,101521.67
2017-08-14T17:05:33.584Z,101514.48
2017-08-14T17:08:01.936Z,101511.91
2017-08-14T17:10:30.278Z,101518.86
2017-08-14T17:12:59.019Z,101522.81
2017-08-14T17:15:27.371Z,101518.33
2017-08-14T17:17:55.741Z,101514.81
2017-08-14T17:20:24.080Z,101521.37
2017-08-14T17:22:52.631Z,101521.42
2017-08-14T17:25:20.976Z,101525.53
2017-08-14T17:27:49.323Z,101531.03
2017-08-14T17:30:17.680Z,101529.38
2017-08-14T17:32:46.031Z,101526.72
2017-08-14T17:35:14.439Z,101528.67
2017-08-14T17:37:42.797Z,101532.57
2017-08-14T17:40:11.148Z,101532.16
2017-08-14T17:42:39.905Z,101538.74
2017-08-14T17:45:08.268Z,101534.42
2017-08-14T17:47:36.612Z,101534.22
2017-08-14T17:50:04.955Z,101532.07
2017-08-14T17:52:33.295Z,101531.62
2017-08-14T17:55:01.779Z,101536.44
2017-08-14T17:57:30.140Z,101530.52
2017-08-14T17:59:58.474Z,101538.19
2017-08-14T18:02:26.818Z,101539.66
2017-08-14T18:04:55.200Z,101537.53
2017-08-14T18:07:23.558Z,101546.81
2017-08-14T18:09:51.959Z,101533.26
2017-08-14T18:12:20.315Z,101536.95
2017-08-14T18:14:48.662Z,101534.81
2017-08-14T18:17:17.516Z,101546.25
2017-08-14T18:19:45.876Z,101538.45
2017-08-14T18:22:14.259Z,101538.20
2017-08-14T18:24:42.620Z,101537.91
2017-08-14T18:27:10.980Z,101536.84
2017-08-14T18:29:39.737Z,101539.78
2017-08-14T18:32:08.079Z,101536.91
2017-08-14T18:34:36.431Z,101542.75
2017-08-14T18:37:04.775Z,101543.70
2017-08-14T18:39:33.129Z,101544.75
2017-08-14T18:42:01.479Z,101544.98
2017-08-14T18:44:29.815Z,101552.37
2017-08-14T18:46:58.162Z,101551.19
2017-08-14T18:49:26.506Z,101554.89
2017-08-14T18:51:55.015Z,101558.03
2017-08-14T18:54:23.368Z,101562.34
2017-08-14T18:56:51.725Z,101564.08
2017-08-14T18:59:20.480Z,101567.38
2017-08-14T19:01:48.831Z,101570.11
2017-08-14T19:04:17.227Z,101572.70
2017-08-14T19:06:45.594Z,101570.84
2017-08-14T19:09:15.308Z,101576.63
2017-08-14T19:11:42.351Z,101577.14
2017-08-14T19:14:10.721Z,101578.16
2017-08-14T19:16:39.067Z,101572.92
2017-08-14T19:19:07.819Z,101575.33
2017-08-14T19:21:36.170Z,101577.70
2017-08-14T19:24:04.679Z,101579.39
2017-08-14T19:26:33.303Z,101573.75
2017-08-14T19:29:02.059Z,101577.38
2017-08-14T19:31:30.420Z,101572.86
2017-08-14T19:33:58.764Z,101577.45
2017-08-14T19:36:27.121Z,101578.42
2017-08-14T19:38:55.467Z,101573.22
2017-08-14T19:41:23.836Z,101567.44
2017-08-14T19:43:52.190Z,101579.00
2017-08-14T19:46:20.821Z,101574.57
2017-08-14T19:48:49.173Z,101574.84
2017-08-14T19:51:17.516Z,101579.79
2017-08-14T19:53:46.276Z,101580.22
2017-08-14T19:56:14.629Z,101580.83
2017-08-14T19:58:42.987Z,101573.68
2017-08-14T20:01:11.336Z,101577.79
2017-08-14T20:03:40.098Z,101573.52
2017-08-14T20:06:08.444Z,101576.80
2017-08-14T20:08:36.805Z,101577.70
2017-08-14T20:11:05.144Z,101576.49
2017-08-14T20:13:33.618Z,101572.50
2017-08-14T20:16:02.240Z,101574.73
2017-08-14T20:18:30.593Z,101575.70
2017-08-14T20:20:59.191Z,101575.61
2017-08-14T20:23:27.932Z,101580.20
2017-08-14T20:25:56.724Z,101579.88
2017-08-14T20:28:25.078Z,101582.53
2017-08-14T20:30:53.424Z,101580.38
2017-08-14T20:33:21.776Z,101579.52
2017-08-14T20:35:50.135Z,101583.59
2017-08-14T20:38:18.483Z,101573.37
2017-08-14T20:40:46.819Z,101582.76
2017-08-14T20:43:15.168Z,101579.39
2017-08-14T20:45:43.521Z,101581.75
2017-08-14T20:48:11.874Z,101583.84
2017-08-14T20:50:40.233Z,101585.69
2017-08-14T20:53:08.764Z,101587.23
2017-08-14T20:55:37.109Z,101578.84
2017-08-14T20:58:05.464Z,101578.78
2017-08-14T21:00:33.817Z,101581.11
2017-08-14T21:03:02.159Z,101579.36
2017-08-14T21:05:30.902Z,101582.44
2017-08-14T21:07:59.257Z,101587.34
2017-08-14T21:10:27.632Z,101581.27
2017-08-14T21:12:55.980Z,101586.12
2017-08-14T21:15:24.349Z,101586.13
2017-08-14T21:17:52.687Z,101586.11
2017-08-14T21:20:21.052Z,101581.70
2017-08-14T21:22:49.412Z,101588.88
2017-08-14T21:25:18.741Z,101591.06
2017-08-14T21:27:47.093Z,101587.10
2017-08-14T21:30:15.456Z,101584.45
2017-08-14T21:32:44.216Z,101582.28
2017-08-14T21:35:12.573Z,101575.20
2017-08-14T21:37:40.922Z,101582.67
2017-08-14T21:40:09.281Z,101581.05
2017-08-14T21:42:37.632Z,101579.73
2017-08-14T21:45:05.987Z,101574.89
2017-08-14T21:47:34.586Z,101578.86
2017-08-14T21:50:02.941Z,101575.34
2017-08-14T21:52:31.292Z,101569.70
2017-08-14T21:55:00.044Z,101578.92
2017-08-14T21:57:28.388Z,101579.50
2017-08-14T21:59:56.747Z,101575.58
2017-08-14T22:02:25.488Z,101577.27
2017-08-14T22:04:53.836Z,101581.26
2017-08-14T22:07:22.175Z,101576.02
2017-08-14T22:09:50.927Z,101578.25
2017-08-14T22:12:20.013Z,101575.25
2017-08-14T22:14:48.556Z,101574.38
2017-08-14T22:17:17.304Z,101573.93
2017-08-14T22:19:45.657Z,101572.22
2017-08-14T22:22:14.016Z,101573.97
2017-08-14T22:24:42.350Z,101576.70
2017-08-14T22:27:10.713Z,101572.73
2017-08-14T22:29:39.069Z,101569.20
2017-08-14T22:32:07.692Z,101572.76
2017-08-14T22:34:36.051Z,101570.97
2017-08-14T22:37:04.381Z,101574.12
2017-08-14T22:39:32.797Z,101579.42
2017-08-14T22:42:01.143Z,101570.17
2017-08-14T22:44:29.895Z,101579.44
2017-08-14T22:46:58.235Z,101576.40
2017-08-14T22:49:26.617Z,101572.46
2017-08-14T22:51:55.888Z,101578.25
2017-08-14T22:54:24.412Z,101568.95
2017-08-14T22:56:52.756Z,101567.68
2017-08-14T22:59:21.508Z,101568.52
2017-08-14T23:01:49.864Z,101572.48
2017-08-14T23:04:18.212Z,101569.44
2017-08-14T23:06:46.559Z,101563.27
2017-08-14T23:09:14.905Z,101561.07
2017-08-14T23:11:43.255Z,101559.31
2017-08-14T23:14:11.594Z,101561.09
2017-08-14T23:16:39.956Z,101550.97
2017-08-14T23:19:08.304Z,101549.25
2017-08-14T23:21:36.804Z,101551.91
2017-08-14T23:24:05.161Z,101561.16
2017-08-14T23:26:33.507Z,101554.11
2017-08-14T23:29:02.251Z,101549.70
2017-08-14T23:31:30.604Z,101545.31
2017-08-14T23:33:58.970Z,101543.55
2017-08-14T23:36:27.317Z,101547.08
2017-08-14T23:38:55.981Z,101543.56
2017-08-14T23:41:24.342Z,101540.52
2017-08-14T23:43:52.691Z,101537.02
2017-08-14T23:46:21.038Z,101542.30
2017-08-14T23:48:49.388Z,101535.19
2017-08-14T23:51:17.745Z,101537.01
2017-08-14T23:53:46.097Z,101536.13
2017-08-14T23:56:14.450Z,101528.66
2017-08-14T23:58:42.801Z,101529.59
